createdAt,value
2023-04-05T00:00:01.407Z,0.0
2023-04-05T00:05:00.639Z,0.0
2023-04-05T00:10:00.585Z,0.7
2023-04-05T00:15:00.545Z,1.8
2023-04-05T00:20:00.609Z,0.0
2023-04-05T00:25:00.583Z,0.0
2023-04-05T00:30:00.593Z,0.0
2023-04-05T00:35:00.537Z,0.0
2023-04-05T00:40:00.609Z,0.0
2023-04-05T00:45:00.540Z,0.0
2023-04-05T00:50:00.602Z,0.0
2023-04-05T00:55:00.627Z,0.0
2023-04-05T01:00:00.613Z,0.3
2023-04-05T01:05:00.528Z,0.3
2023-04-05T01:10:00.577Z,0.3
2023-04-05T01:15:00.554Z,0.0
2023-04-05T01:20:00.684Z,0.0
2023-04-05T01:25:00.555Z,0.5
2023-04-05T01:30:00.595Z,0.0
2023-04-05T01:35:00.641Z,0.0
2023-04-05T01:40:00.626Z,0.0
2023-04-05T01:45:00.541Z,0.0
2023-04-05T01:50:00.613Z,0.0
2023-04-05T01:55:00.589Z,0.0
2023-04-05T02:00:00.571Z,0.0
2023-04-05T02:05:00.534Z,0.0
2023-04-05T02:10:00.670Z,0.0
2023-04-05T02:15:00.536Z,0.0
2023-04-05T02:20:00.604Z,0.0
2023-04-05T02:25:00.586Z,0.0
2023-04-05T02:30:00.752Z,0.0
2023-04-05T02:35:00.596Z,0.0
2023-04-05T02:40:00.532Z,0.0
2023-04-05T02:45:00.552Z,0.8
2023-04-05T02:50:00.608Z,1.2
2023-04-05T02:55:00.595Z,0.8
2023-04-05T03:00:00.608Z,1.2
2023-04-05T03:05:00.545Z,0.7
2023-04-05T03:10:00.590Z,0.3
2023-04-05T03:15:00.561Z,0.0
2023-04-05T03:20:00.581Z,0.3
2023-04-05T03:25:00.609Z,0.2
2023-04-05T03:30:00.605Z,0.0
2023-04-05T03:35:00.602Z,0.0
2023-04-05T03:40:00.596Z,0.2
2023-04-05T03:45:00.593Z,0.0
2023-04-05T03:50:00.583Z,0.0
2023-04-05T03:55:00.576Z,0.0
2023-04-05T04:00:00.533Z,0.0
2023-04-05T04:05:00.672Z,0.0
2023-04-05T04:10:00.693Z,0.0
2023-04-05T04:15:00.602Z,0.0
2023-04-05T04:20:00.615Z,0.0
2023-04-05T04:25:00.591Z,0.0
2023-04-05T04:30:00.591Z,0.0
2023-04-05T04:35:00.552Z,0.0
2023-04-05T04:40:00.893Z,0.0
2023-04-05T04:45:00.577Z,0.0
2023-04-05T04:50:00.538Z,0.0
2023-04-05T04:55:00.577Z,0.0
2023-04-05T05:00:00.613Z,0.0
2023-04-05T05:05:00.601Z,0.0
2023-04-05T05:10:00.682Z,0.0
2023-04-05T05:15:00.580Z,0.0
2023-04-05T05:20:00.567Z,0.0
2023-04-05T05:25:00.577Z,2.3
2023-04-05T05:30:00.602Z,0.0
2023-04-05T05:35:00.545Z,0.0
2023-04-05T05:40:00.651Z,0.2
2023-04-05T05:45:00.598Z,0.9
2023-04-05T05:50:00.594Z,1.1
2023-04-05T05:55:00.543Z,1.1
2023-04-05T06:00:00.611Z,0.3
2023-04-05T06:05:00.616Z,1.2
2023-04-05T06:10:00.572Z,2.1
2023-04-05T06:15:00.542Z,0.1
2023-04-05T06:20:00.601Z,1.0
2023-04-05T06:25:00.558Z,0.0
2023-04-05T06:30:00.647Z,0.2
2023-04-05T06:35:00.652Z,3.4
2023-04-05T06:40:00.544Z,2.3
2023-04-05T06:45:00.658Z,2.0
2023-04-05T06:50:00.576Z,2.2
2023-04-05T06:55:00.577Z,2.8
2023-04-05T07:00:00.689Z,0.8
2023-04-05T07:05:00.692Z,0.4
2023-04-05T07:10:00.690Z,1.5
2023-04-05T07:15:00.621Z,2.7
2023-04-05T07:20:00.627Z,1.5
2023-04-05T07:25:00.692Z,5.1
2023-04-05T07:30:00.616Z,2.4
2023-04-05T07:35:00.563Z,1.5
2023-04-05T07:40:00.602Z,1.3
2023-04-05T07:45:00.549Z,2.0
2023-04-05T07:50:00.618Z,2.7
2023-04-05T07:55:00.588Z,2.8
2023-04-05T08:00:00.987Z,0.7
2023-04-05T08:05:00.665Z,0.2
2023-04-05T08:10:00.856Z,7.0
2023-04-05T08:15:00.572Z,1.4
2023-04-05T08:20:00.613Z,1.1
2023-04-05T08:25:00.680Z,1.0
2023-04-05T08:30:00.656Z,0.6
2023-04-05T08:35:00.626Z,3.1
2023-04-05T08:40:00.618Z,4.7
2023-04-05T08:45:00.594Z,2.1
2023-04-05T08:50:00.602Z,5.9
2023-04-05T08:55:00.548Z,2.4
2023-04-05T09:00:00.608Z,3.4
2023-04-05T09:05:00.551Z,6.6
2023-04-05T09:10:00.640Z,3.5
2023-04-05T09:15:00.591Z,0.2
2023-04-05T09:20:00.600Z,1.1
2023-04-05T09:25:00.549Z,2.2
2023-04-05T09:30:00.607Z,0.5
2023-04-05T09:35:00.636Z,0.7
2023-04-05T09:40:00.569Z,1.2
2023-04-05T09:45:00.592Z,1.3
2023-04-05T09:50:00.601Z,7.0
2023-04-05T09:55:00.772Z,5.2
2023-04-05T10:00:00.611Z,1.3
2023-04-05T10:05:00.595Z,1.1
2023-04-05T10:10:00.653Z,5.1
2023-04-05T10:15:00.573Z,1.4
2023-04-05T10:20:00.605Z,3.9
2023-04-05T10:25:00.546Z,5.7
2023-04-05T10:30:00.636Z,6.7
2023-04-05T10:35:00.592Z,7.0
2023-04-05T10:40:00.560Z,1.7
2023-04-05T10:45:00.568Z,5.8
2023-04-05T10:50:00.687Z,2.0
2023-04-05T10:55:00.572Z,5.7
2023-04-05T11:00:00.630Z,3.2
2023-04-05T11:05:00.615Z,3.8
2023-04-05T11:10:00.583Z,0.5
2023-04-05T11:15:00.587Z,4.0
2023-04-05T11:20:00.565Z,6.4
2023-04-05T11:25:00.603Z,5.3
2023-04-05T11:30:00.607Z,4.1
2023-04-05T11:35:00.558Z,6.0
2023-04-05T11:40:00.596Z,5.5
2023-04-05T11:45:00.626Z,5.8
2023-04-05T11:50:00.566Z,9.8
2023-04-05T11:55:03.726Z,9.3
2023-04-05T12:00:00.604Z,8.8
2023-04-05T12:05:00.798Z,7.1
2023-04-05T12:10:00.600Z,6.9
2023-04-05T12:15:00.616Z,3.7
2023-04-05T12:20:00.679Z,6.0
2023-04-05T12:25:00.530Z,6.1
2023-04-05T12:30:00.670Z,4.2
2023-04-05T12:35:00.592Z,7.0
2023-04-05T12:40:00.630Z,7.5
2023-04-05T12:45:00.806Z,5.7
2023-04-05T12:50:00.589Z,5.7
2023-04-05T12:55:00.548Z,5.6
2023-04-05T13:00:00.597Z,6.2
2023-04-05T13:05:00.619Z,3.9
2023-04-05T13:10:00.620Z,4.6
2023-04-05T13:15:00.647Z,1.4
2023-04-05T13:20:00.639Z,1.6
2023-04-05T13:25:00.605Z,0.8
2023-04-05T13:30:00.620Z,3.5
2023-04-05T13:35:00.687Z,4.3
2023-04-05T13:40:00.708Z,1.8
2023-04-05T13:45:00.692Z,0.5
2023-04-05T13:50:00.580Z,2.4
2023-04-05T13:55:01.698Z,2.4
2023-04-05T14:00:01.039Z,2.8
2023-04-05T14:05:00.597Z,6.4
2023-04-05T14:10:00.665Z,8.7
2023-04-05T14:15:00.587Z,9.0
2023-04-05T14:20:00.624Z,6.9
2023-04-05T14:25:00.597Z,7.4
2023-04-05T14:30:00.623Z,4.7
2023-04-05T14:35:00.590Z,7.4
2023-04-05T14:40:00.592Z,5.3
2023-04-05T14:45:00.572Z,5.9
2023-04-05T14:50:00.584Z,6.9
2023-04-05T14:55:00.745Z,4.3
2023-04-05T15:00:00.584Z,4.1
2023-04-05T15:05:00.920Z,1.7
2023-04-05T15:10:00.895Z,1.8
2023-04-05T15:15:00.578Z,2.4
2023-04-05T15:20:00.585Z,0.1
2023-04-05T15:25:00.589Z,0.2
2023-04-05T15:30:00.650Z,0.7
2023-04-05T15:35:00.647Z,0.0
2023-04-05T15:40:03.962Z,0.7
2023-04-05T15:45:00.639Z,0.0
2023-04-05T15:50:00.650Z,1.7
2023-04-05T15:55:00.739Z,0.3
2023-04-05T16:00:00.580Z,0.5
2023-04-05T16:05:00.641Z,0.3
2023-04-05T16:10:00.706Z,0.0
2023-04-05T16:15:00.580Z,0.4
2023-04-05T16:20:00.806Z,0.7
2023-04-05T16:25:00.606Z,1.9
2023-04-05T16:30:00.583Z,3.5
2023-04-05T16:35:00.575Z,4.0
2023-04-05T16:40:00.613Z,3.7
2023-04-05T16:45:00.695Z,2.1
2023-04-05T16:50:00.637Z,5.5
2023-04-05T16:55:00.635Z,4.7
2023-04-05T17:00:00.642Z,3.8
2023-04-05T17:05:00.629Z,3.6
2023-04-05T17:10:00.631Z,4.4
2023-04-05T17:15:00.560Z,0.9
2023-04-05T17:20:00.565Z,4.1
2023-04-05T17:25:00.535Z,1.9
2023-04-05T17:30:00.589Z,4.1
2023-04-05T17:35:00.863Z,0.8
2023-04-05T17:40:00.679Z,0.6
2023-04-05T17:45:00.623Z,2.8
2023-04-05T17:50:00.595Z,1.5
2023-04-05T17:55:00.673Z,1.5
2023-04-05T18:00:00.593Z,1.7
2023-04-05T18:05:00.608Z,1.0
2023-04-05T18:10:00.621Z,0.1
2023-04-05T18:15:00.695Z,2.7
2023-04-05T18:20:00.610Z,0.3
2023-04-05T18:25:00.537Z,0.2
2023-04-05T18:30:00.605Z,1.0
2023-04-05T18:35:00.546Z,0.0
2023-04-05T18:40:00.593Z,0.5
2023-04-05T18:45:00.590Z,0.1
2023-04-05T18:50:00.730Z,1.4
2023-04-05T18:55:00.606Z,3.8
2023-04-05T19:00:00.629Z,0.8
2023-04-05T19:05:00.917Z,0.2
2023-04-05T19:10:00.588Z,0.3
2023-04-05T19:15:00.813Z,1.3
2023-04-05T19:20:00.630Z,0.4
2023-04-05T19:25:00.609Z,0.0
2023-04-05T19:30:00.601Z,0.0
2023-04-05T19:35:00.929Z,0.2
2023-04-05T19:40:00.592Z,0.0
2023-04-05T19:45:00.644Z,0.0
2023-04-05T19:50:00.838Z,0.0
2023-04-05T19:55:00.579Z,0.5
2023-04-05T20:00:00.595Z,0.1
2023-04-05T20:05:00.564Z,0.1
2023-04-05T20:10:00.587Z,0.2
2023-04-05T20:15:00.549Z,0.6
2023-04-05T20:20:00.673Z,0.0
2023-04-05T20:25:00.542Z,0.0
2023-04-05T20:30:00.599Z,0.0
2023-04-05T20:35:00.601Z,0.0
2023-04-05T20:40:00.549Z,0.6
2023-04-05T20:45:00.611Z,0.0
2023-04-05T20:50:00.669Z,0.0
2023-04-05T20:55:00.539Z,0.0
2023-04-05T21:00:00.754Z,0.0
2023-04-05T21:05:00.585Z,0.0
2023-04-05T21:10:00.554Z,0.0
2023-04-05T21:15:00.614Z,0.0
2023-04-05T21:20:00.587Z,0.0
2023-04-05T21:25:00.576Z,0.0
2023-04-05T21:30:00.599Z,0.0
2023-04-05T21:35:00.534Z,0.0
2023-04-05T21:40:00.626Z,0.0
2023-04-05T21:45:00.579Z,0.0
2023-04-05T21:50:00.586Z,0.0
2023-04-05T21:55:00.536Z,0.0
2023-04-05T22:00:00.590Z,0.0
2023-04-05T22:05:00.580Z,0.0
2023-04-05T22:10:00.574Z,0.0
2023-04-05T22:15:00.561Z,0.0
2023-04-05T22:20:00.571Z,0.0
2023-04-05T22:25:00.570Z,0.0
2023-04-05T22:30:00.657Z,0.0
2023-04-05T22:35:00.605Z,0.3
2023-04-05T22:40:00.608Z,0.5
2023-04-05T22:45:00.613Z,0.7
2023-04-05T22:50:00.663Z,0.6
2023-04-05T22:55:00.623Z,0.3
2023-04-05T23:00:00.631Z,1.5
2023-04-05T23:05:00.693Z,1.0
2023-04-05T23:10:00.592Z,0.4
2023-04-05T23:15:00.576Z,0.5
2023-04-05T23:20:00.625Z,0.2
2023-04-05T23:25:00.593Z,0.6
2023-04-05T23:30:00.549Z,1.3
2023-04-05T23:35:00.546Z,0.4
2023-04-05T23:40:00.628Z,0.1
2023-04-05T23:45:00.673Z,1.8
2023-04-05T23:50:00.554Z,0.6
2023-04-05T23:55:00.757Z,1.4
